createdAt,value
2019-03-04T00:01:34.321Z,92.80
2019-03-04T00:04:21.902Z,92.70
2019-03-04T00:07:09.672Z,92.70
2019-03-04T00:09:57.782Z,92.70
2019-03-04T00:12:45.228Z,92.60
2019-03-04T00:15:33.385Z,92.90
2019-03-04T00:18:21.099Z,92.40
2019-03-04T00:21:08.877Z,92.30
2019-03-04T00:23:56.998Z,92.10
2019-03-04T00:26:45.082Z,92.30
2019-03-04T00:29:32.810Z,92.30
2019-03-04T00:32:20.714Z,92.00
2019-03-04T00:35:08.606Z,91.70
2019-03-04T00:37:59.919Z,91.90
2019-03-04T00:40:48.035Z,91.80
2019-03-04T00:43:35.713Z,91.90
2019-03-04T00:46:23.709Z,91.90
2019-03-04T00:49:13.759Z,91.80
2019-03-04T00:52:01.641Z,92.20
2019-03-04T00:54:49.486Z,92.00
2019-03-04T00:57:37.408Z,91.60
2019-03-04T01:00:25.196Z,91.70
2019-03-04T01:03:14.250Z,91.90
2019-03-04T01:06:03.482Z,91.60
2019-03-04T01:08:51.814Z,91.50
2019-03-04T01:11:40.005Z,91.60
2019-03-04T01:14:28.052Z,91.80
2019-03-04T01:17:16.312Z,91.40
2019-03-04T01:20:04.787Z,92.30
2019-03-04T01:22:52.407Z,92.20
2019-03-04T01:25:40.271Z,92.20
2019-03-04T01:28:28.453Z,92.20
2019-03-04T01:31:16.588Z,91.70
2019-03-04T01:34:04.438Z,91.30
2019-03-04T01:36:52.439Z,91.40
2019-03-04T01:39:40.746Z,91.20
2019-03-04T01:42:28.863Z,91.10
2019-03-04T01:45:16.803Z,91.00
2019-03-04T01:48:05.050Z,91.20
2019-03-04T01:50:53.406Z,91.10
2019-03-04T01:53:41.759Z,91.20
2019-03-04T01:56:29.460Z,91.30
2019-03-04T01:59:16.892Z,91.00
2019-03-04T02:02:05.012Z,90.90
2019-03-04T02:04:53.012Z,90.70
2019-03-04T02:07:41.282Z,90.60
2019-03-04T02:10:29.047Z,90.50
2019-03-04T02:13:16.909Z,90.70
2019-03-04T02:16:05.063Z,90.80
2019-03-04T02:18:53.067Z,90.80
2019-03-04T02:21:41.240Z,91.10
2019-03-04T02:24:31.157Z,91.00
2019-03-04T02:27:18.855Z,91.00
2019-03-04T02:30:13.286Z,91.10
2019-03-04T02:33:01.135Z,91.30
2019-03-04T02:35:52.135Z,91.20
2019-03-04T02:38:40.357Z,91.30
2019-03-04T02:41:29.007Z,91.50
2019-03-04T02:44:17.056Z,91.70
2019-03-04T02:47:04.729Z,91.80
2019-03-04T02:49:52.882Z,91.90
2019-03-04T02:52:40.694Z,91.90
2019-03-04T02:55:30.610Z,87.10
2019-03-04T02:58:18.881Z,89.10
2019-03-04T03:01:07.317Z,84.80
2019-03-04T03:03:55.447Z,88.30
2019-03-04T03:06:43.648Z,88.40
2019-03-04T03:09:31.655Z,86.60
2019-03-04T03:12:21.784Z,81.40
2019-03-04T03:15:10.059Z,78.60
2019-03-04T03:17:58.228Z,80.20
2019-03-04T03:20:46.097Z,76.20
2019-03-04T03:23:34.094Z,75.20
2019-03-04T03:26:22.104Z,80.00
2019-03-04T03:29:10.134Z,80.00
2019-03-04T03:31:57.659Z,78.50
2019-03-04T03:34:45.547Z,77.30
2019-03-04T03:37:33.711Z,77.00
2019-03-04T03:40:21.532Z,78.80
2019-03-04T03:43:09.718Z,75.70
2019-03-04T03:45:58.125Z,78.10
2019-03-04T03:48:50.210Z,77.70
2019-03-04T03:51:38.201Z,77.50
2019-03-04T03:54:26.185Z,79.10
2019-03-04T03:57:14.145Z,78.80
2019-03-04T04:00:02.557Z,78.80
2019-03-04T04:02:50.696Z,80.50
2019-03-04T04:05:40.107Z,79.10
2019-03-04T04:08:28.404Z,81.00
2019-03-04T04:11:16.610Z,80.10
2019-03-04T04:14:05.008Z,81.20
2019-03-04T04:16:53.063Z,80.50
2019-03-04T04:19:40.981Z,81.50
2019-03-04T04:22:28.880Z,81.40
2019-03-04T04:25:17.210Z,82.00
2019-03-04T04:28:08.742Z,82.10
2019-03-04T04:30:56.782Z,82.80
2019-03-04T04:33:44.834Z,83.30
2019-03-04T04:36:32.659Z,83.80
2019-03-04T04:39:20.571Z,83.40
2019-03-04T04:42:08.680Z,83.30
2019-03-04T04:44:56.741Z,83.70
2019-03-04T04:47:44.609Z,84.90
2019-03-04T04:50:34.877Z,86.00
2019-03-04T04:53:22.618Z,87.10
2019-03-04T04:56:10.793Z,87.50
2019-03-04T04:58:58.994Z,86.80
2019-03-04T05:01:46.953Z,87.00
2019-03-04T05:04:35.112Z,80.70
2019-03-04T05:07:23.223Z,75.50
2019-03-04T05:10:13.758Z,71.70
2019-03-04T05:13:01.701Z,70.10
2019-03-04T05:15:49.607Z,64.80
2019-03-04T05:18:37.422Z,63.20
2019-03-04T05:21:25.342Z,60.20
2019-03-04T05:24:13.146Z,57.80
2019-03-04T05:27:03.454Z,57.90
2019-03-04T05:29:51.377Z,57.30
2019-03-04T05:32:39.171Z,57.00
2019-03-04T05:35:27.241Z,56.50
2019-03-04T05:38:15.171Z,55.60
2019-03-04T05:41:03.186Z,55.60
2019-03-04T05:43:51.341Z,54.80
2019-03-04T05:46:40.406Z,54.70
2019-03-04T05:49:27.938Z,54.00
2019-03-04T05:52:15.748Z,55.20
2019-03-04T05:55:03.212Z,54.30
2019-03-04T05:57:51.070Z,54.10
2019-03-04T06:00:40.606Z,53.90
2019-03-04T06:03:28.617Z,54.20
2019-03-04T06:06:18.426Z,54.80
2019-03-04T06:09:08.966Z,54.80
2019-03-04T06:11:56.819Z,53.90
2019-03-04T06:14:44.502Z,55.40
2019-03-04T06:17:32.568Z,53.60
2019-03-04T06:20:20.756Z,53.80
2019-03-04T06:23:08.730Z,53.50
2019-03-04T06:25:56.660Z,52.70
2019-03-04T06:28:44.637Z,52.60
2019-03-04T06:31:32.151Z,51.60
2019-03-04T06:34:19.876Z,52.00
2019-03-04T06:37:07.781Z,50.70
2019-03-04T06:39:56.978Z,50.60
2019-03-04T06:42:45.046Z,50.80
2019-03-04T06:45:32.858Z,50.70
2019-03-04T06:48:20.611Z,50.50
2019-03-04T06:51:09.688Z,50.00
2019-03-04T06:54:09.098Z,50.60
2019-03-04T06:57:07.048Z,49.00
2019-03-04T07:00:44.127Z,47.90
2019-03-04T07:03:37.198Z,47.70
2019-03-04T07:06:25.016Z,46.90
2019-03-04T07:09:18.365Z,47.60
2019-03-04T07:12:09.026Z,46.80
2019-03-04T07:14:56.997Z,46.50
2019-03-04T07:17:45.147Z,47.70
2019-03-04T07:20:33.569Z,48.60
2019-03-04T07:23:21.722Z,47.80
2019-03-04T07:26:09.329Z,48.70
2019-03-04T07:28:57.471Z,47.90
2019-03-04T07:31:45.271Z,47.60
2019-03-04T07:34:33.860Z,47.00
2019-03-04T07:37:24.673Z,46.60
2019-03-04T07:40:12.619Z,46.50
2019-03-04T07:43:00.463Z,46.00
2019-03-04T07:45:48.780Z,45.80
2019-03-04T07:48:37.186Z,45.20
2019-03-04T07:51:25.162Z,44.60
2019-03-04T07:54:13.573Z,44.50
2019-03-04T07:57:02.027Z,43.50
2019-03-04T07:59:50.631Z,42.90
2019-03-04T08:02:38.472Z,43.20
2019-03-04T08:05:26.687Z,42.60
2019-03-04T08:08:14.718Z,42.30
2019-03-04T08:11:39.761Z,43.40
2019-03-04T08:14:28.317Z,43.70
2019-03-04T08:17:16.478Z,42.50
2019-03-04T08:20:05.262Z,42.60
2019-03-04T08:22:53.697Z,41.60
2019-03-04T08:25:41.594Z,42.40
2019-03-04T08:28:29.964Z,42.90
2019-03-04T08:31:17.795Z,42.70
2019-03-04T08:34:05.949Z,43.00
2019-03-04T08:36:53.930Z,42.80
2019-03-04T08:39:42.015Z,42.30
2019-03-04T08:42:33.320Z,42.70
2019-03-04T08:45:21.522Z,42.70
2019-03-04T08:48:09.617Z,42.00
2019-03-04T08:50:57.626Z,42.10
2019-03-04T08:53:45.912Z,41.80
2019-03-04T08:56:34.187Z,41.30
2019-03-04T08:59:23.743Z,41.30
2019-03-04T09:02:11.463Z,41.10
2019-03-04T09:05:00.345Z,40.50
2019-03-04T09:07:48.487Z,40.30
2019-03-04T09:10:36.750Z,39.80
2019-03-04T09:13:24.672Z,39.90
2019-03-04T09:16:12.925Z,41.00
2019-03-04T09:19:00.796Z,37.30
2019-03-04T09:21:48.921Z,36.70
2019-03-04T09:24:36.427Z,35.30
2019-03-04T09:27:24.521Z,36.50
2019-03-04T09:30:13.353Z,37.60
2019-03-04T09:33:01.435Z,37.50
2019-03-04T09:35:49.478Z,37.50
2019-03-04T09:38:38.290Z,38.40
2019-03-04T09:41:26.792Z,38.50
2019-03-04T09:44:14.696Z,39.20
2019-03-04T09:47:02.584Z,39.10
2019-03-04T09:49:50.858Z,40.20
2019-03-04T09:52:39.404Z,39.70
2019-03-04T09:55:27.764Z,39.70
2019-03-04T09:58:15.794Z,39.80
2019-03-04T10:01:12.150Z,40.80
2019-03-04T10:04:42.118Z,40.80
2019-03-04T10:08:00.893Z,41.00
2019-03-04T10:11:26.780Z,41.00
2019-03-04T10:15:09.065Z,42.10
2019-03-04T10:18:28.537Z,42.40
2019-03-04T10:21:49.969Z,42.90
2019-03-04T10:24:51.117Z,43.20
2019-03-04T10:28:09.313Z,43.90
2019-03-04T10:31:44.625Z,45.10
2019-03-04T10:35:35.006Z,45.30
2019-03-04T10:38:52.075Z,46.10
2019-03-04T10:42:18.064Z,46.50
2019-03-04T10:45:23.397Z,46.10
2019-03-04T10:48:11.462Z,46.10
2019-03-04T10:50:58.905Z,47.50
2019-03-04T10:53:46.870Z,48.10
2019-03-04T10:56:34.704Z,48.50
2019-03-04T10:59:22.769Z,48.60
2019-03-04T11:02:10.657Z,48.00
2019-03-04T11:04:58.617Z,49.50
2019-03-04T11:07:46.036Z,50.50
2019-03-04T11:10:33.506Z,49.70
2019-03-04T11:13:21.302Z,50.10
2019-03-04T11:16:08.640Z,51.00
2019-03-04T11:18:55.978Z,51.30
2019-03-04T11:21:44.114Z,52.00
2019-03-04T11:24:32.172Z,53.00
2019-03-04T11:27:19.844Z,54.00
2019-03-04T11:30:07.293Z,55.10
2019-03-04T11:32:55.438Z,56.30
2019-03-04T11:35:43.678Z,58.00
2019-03-04T11:38:36.923Z,59.00
2019-03-04T11:41:24.753Z,60.50
2019-03-04T11:44:12.410Z,61.70
2019-03-04T11:47:00.470Z,62.10
2019-03-04T11:49:48.993Z,62.90
2019-03-04T11:52:36.710Z,64.40
2019-03-04T11:55:25.046Z,65.80
2019-03-04T11:58:12.818Z,67.10
2019-03-04T12:01:09.274Z,68.80
2019-03-04T12:03:56.610Z,70.90
2019-03-04T12:06:44.603Z,72.90
2019-03-04T12:09:32.545Z,75.70
2019-03-04T12:12:20.477Z,75.90
2019-03-04T12:15:10.773Z,77.60
2019-03-04T12:17:58.764Z,78.10
2019-03-04T12:20:46.971Z,79.30
2019-03-04T12:23:34.509Z,79.00
2019-03-04T12:26:22.190Z,78.90
2019-03-04T12:29:09.595Z,79.10
2019-03-04T12:32:16.455Z,79.90
2019-03-04T12:35:05.991Z,80.40
2019-03-04T12:37:53.933Z,80.70
2019-03-04T12:40:41.726Z,81.20
2019-03-04T12:43:29.508Z,81.70
2019-03-04T12:46:17.250Z,81.00
2019-03-04T12:49:04.952Z,81.00
2019-03-04T12:51:52.682Z,80.80
2019-03-04T12:54:40.418Z,80.80
2019-03-04T12:57:28.208Z,81.40
2019-03-04T13:00:18.572Z,81.30
2019-03-04T13:03:06.833Z,82.40
2019-03-04T13:05:54.922Z,82.90
2019-03-04T13:08:42.875Z,83.40
2019-03-04T13:11:30.396Z,84.30
2019-03-04T13:14:18.033Z,85.70
2019-03-04T13:17:05.737Z,88.00
2019-03-04T13:19:53.458Z,90.20
2019-03-04T13:22:41.412Z,91.60
2019-03-04T13:25:29.082Z,91.80
2019-03-04T13:28:17.217Z,92.70
2019-03-04T13:31:05.855Z,93.20
2019-03-04T13:33:53.751Z,92.90
2019-03-04T13:36:41.521Z,93.00
2019-03-04T13:39:29.225Z,93.10
2019-03-04T13:42:16.924Z,92.80
2019-03-04T13:45:05.747Z,92.80
2019-03-04T13:47:53.683Z,93.00
2019-03-04T13:50:41.874Z,92.10
2019-03-04T13:53:29.420Z,92.30
2019-03-04T13:56:16.774Z,92.20
2019-03-04T13:59:04.205Z,92.80
2019-03-04T14:01:52.681Z,92.80
2019-03-04T14:04:40.127Z,93.10
2019-03-04T14:07:27.544Z,93.30
2019-03-04T14:10:16.569Z,92.90
2019-03-04T14:13:04.204Z,93.10
2019-03-04T14:15:52.091Z,93.30
2019-03-04T14:18:39.724Z,93.50
2019-03-04T14:21:27.425Z,93.50
2019-03-04T14:24:15.062Z,93.40
2019-03-04T14:27:02.719Z,93.30
2019-03-04T14:29:50.498Z,93.00
2019-03-04T14:32:38.241Z,92.30
2019-03-04T14:35:26.463Z,92.20
2019-03-04T14:38:14.276Z,91.80
2019-03-04T14:41:02.213Z,91.40
2019-03-04T14:43:50.466Z,91.50
2019-03-04T14:46:38.283Z,91.20
2019-03-04T14:49:26.529Z,91.70
2019-03-04T14:52:14.467Z,91.50
2019-03-04T14:55:02.278Z,91.80
2019-03-04T14:57:49.729Z,91.60
2019-03-04T15:00:39.540Z,91.30
2019-03-04T15:03:27.239Z,90.80
2019-03-04T15:06:14.654Z,90.20
2019-03-04T15:09:02.495Z,90.00
2019-03-04T15:11:50.446Z,88.60
2019-03-04T15:14:38.197Z,85.40
2019-03-04T15:17:29.387Z,85.60
2019-03-04T15:20:18.878Z,84.40
2019-03-04T15:23:07.032Z,84.20
2019-03-04T15:25:54.785Z,81.20
2019-03-04T15:28:42.504Z,78.60
2019-03-04T15:31:29.889Z,75.60
2019-03-04T15:34:17.463Z,75.90
2019-03-04T15:37:05.149Z,75.10
2019-03-04T15:39:52.392Z,74.80
2019-03-04T15:42:40.060Z,75.40
2019-03-04T15:45:28.286Z,74.10
2019-03-04T15:48:16.330Z,74.60
2019-03-04T15:51:03.780Z,75.00
2019-03-04T15:53:51.427Z,74.70
2019-03-04T15:56:39.445Z,73.80
2019-03-04T15:59:27.108Z,72.10
2019-03-04T16:02:15.602Z,68.30
2019-03-04T16:05:03.438Z,68.90
2019-03-04T16:07:51.244Z,65.60
2019-03-04T16:10:39.077Z,64.80
2019-03-04T16:13:26.593Z,64.90
2019-03-04T16:16:14.482Z,62.20
2019-03-04T16:19:02.493Z,61.30
2019-03-04T16:21:49.752Z,60.00
2019-03-04T16:24:37.432Z,60.00
2019-03-04T16:27:25.682Z,57.20
2019-03-04T16:30:15.727Z,56.90
2019-03-04T16:33:03.466Z,57.50
2019-03-04T16:35:51.417Z,56.40
2019-03-04T16:38:39.511Z,55.70
2019-03-04T16:41:27.624Z,56.10
2019-03-04T16:44:15.448Z,56.30
2019-03-04T16:47:03.183Z,55.50
2019-03-04T16:49:51.029Z,54.60
2019-03-04T16:52:38.861Z,55.10
2019-03-04T16:55:26.761Z,55.20
2019-03-04T16:58:14.249Z,54.90
2019-03-04T17:01:02.176Z,54.50
2019-03-04T17:03:50.165Z,54.40
2019-03-04T17:06:37.826Z,54.50
2019-03-04T17:09:25.518Z,53.80
2019-03-04T17:12:13.288Z,54.30
2019-03-04T17:15:00.786Z,54.50
2019-03-04T17:17:48.734Z,54.50
2019-03-04T17:20:36.429Z,54.20
2019-03-04T17:23:24.162Z,55.40
2019-03-04T17:26:11.874Z,56.10
2019-03-04T17:28:59.453Z,56.90
2019-03-04T17:31:47.511Z,56.50
2019-03-04T17:34:34.995Z,56.60
2019-03-04T17:37:22.916Z,56.90
2019-03-04T17:40:11.774Z,56.50
2019-03-04T17:42:59.633Z,56.70
2019-03-04T17:45:47.690Z,56.50
2019-03-04T17:48:35.537Z,56.70
2019-03-04T17:51:23.550Z,56.50
2019-03-04T17:54:11.488Z,56.60
2019-03-04T17:56:58.914Z,57.00
2019-03-04T17:59:46.482Z,57.40
2019-03-04T18:02:34.088Z,57.50
2019-03-04T18:05:22.089Z,57.70
2019-03-04T18:08:09.635Z,58.30
2019-03-04T18:10:58.935Z,58.50
2019-03-04T18:13:46.901Z,59.60
2019-03-04T18:16:34.416Z,61.00
2019-03-04T18:19:21.903Z,61.10
2019-03-04T18:22:09.646Z,62.70
2019-03-04T18:24:57.118Z,63.10
2019-03-04T18:27:49.527Z,62.10
2019-03-04T18:31:21.384Z,62.10
2019-03-04T18:34:18.280Z,60.50
2019-03-04T18:37:39.918Z,61.30
2019-03-04T18:41:11.926Z,60.10
2019-03-04T18:44:36.122Z,60.50
2019-03-04T18:48:00.224Z,59.70
2019-03-04T18:50:47.983Z,59.40
2019-03-04T18:53:35.946Z,59.40
2019-03-04T18:56:23.644Z,59.20
2019-03-04T18:59:11.479Z,58.90
2019-03-04T19:01:59.281Z,58.80
2019-03-04T19:04:46.985Z,58.70
2019-03-04T19:07:35.106Z,59.40
2019-03-04T19:10:22.452Z,58.80
2019-03-04T19:13:10.756Z,59.40
2019-03-04T19:15:58.633Z,59.60
2019-03-04T19:18:46.692Z,59.60
2019-03-04T19:21:34.861Z,59.20
2019-03-04T19:24:22.131Z,59.00
2019-03-04T19:27:09.768Z,59.60
2019-03-04T19:29:57.814Z,59.30
2019-03-04T19:32:45.308Z,59.20
2019-03-04T19:35:33.153Z,59.30
2019-03-04T19:38:20.836Z,59.40
2019-03-04T19:41:08.744Z,59.80
2019-03-04T19:43:56.819Z,59.70
2019-03-04T19:46:44.735Z,59.20
2019-03-04T19:49:32.662Z,59.40
2019-03-04T19:52:21.082Z,59.00
2019-03-04T19:55:09.634Z,58.40
2019-03-04T19:57:57.286Z,58.90
2019-03-04T20:00:44.975Z,58.80
2019-03-04T20:03:32.731Z,59.70
2019-03-04T20:06:20.682Z,59.40
2019-03-04T20:09:08.697Z,59.90
2019-03-04T20:11:56.367Z,60.20
2019-03-04T20:14:44.116Z,60.70
2019-03-04T20:17:31.798Z,60.90
2019-03-04T20:20:19.648Z,61.20
2019-03-04T20:23:07.245Z,61.90
2019-03-04T20:25:56.834Z,61.60
2019-03-04T20:28:44.318Z,62.70
2019-03-04T20:31:32.145Z,63.30
2019-03-04T20:34:20.078Z,63.50
2019-03-04T20:37:07.934Z,63.00
2019-03-04T20:39:55.753Z,62.20
2019-03-04T20:42:43.785Z,61.50
2019-03-04T20:45:32.108Z,60.80
2019-03-04T20:48:20.313Z,59.80
2019-03-04T20:51:08.491Z,59.40
2019-03-04T20:53:56.334Z,58.40
2019-03-04T20:56:44.193Z,58.70
2019-03-04T20:59:31.733Z,58.80
2019-03-04T21:02:19.376Z,58.40
2019-03-04T21:05:08.272Z,58.40
2019-03-04T21:07:56.565Z,58.20
2019-03-04T21:10:44.792Z,57.70
2019-03-04T21:13:35.721Z,57.80
2019-03-04T21:16:21.808Z,57.90
2019-03-04T21:19:09.412Z,57.20
2019-03-04T21:21:57.955Z,57.70
2019-03-04T21:24:45.320Z,57.70
2019-03-04T21:27:33.423Z,57.80
2019-03-04T21:31:04.352Z,57.80
2019-03-04T21:34:02.063Z,58.00
2019-03-04T21:36:59.759Z,57.80
2019-03-04T21:39:48.555Z,58.30
2019-03-04T21:42:42.512Z,57.30
2019-03-04T21:46:07.191Z,57.40
2019-03-04T21:48:58.890Z,56.20
2019-03-04T21:52:37.612Z,55.50
2019-03-04T21:55:29.723Z,55.50
2019-03-04T21:58:17.729Z,55.00
2019-03-04T22:01:13.924Z,54.50
2019-03-04T22:04:01.733Z,54.70
2019-03-04T22:06:49.631Z,55.10
2019-03-04T22:09:37.151Z,54.80
2019-03-04T22:12:25.048Z,55.10
2019-03-04T22:15:13.229Z,55.50
2019-03-04T22:18:00.906Z,55.50
2019-03-04T22:20:48.994Z,56.10
2019-03-04T22:23:36.918Z,56.60
2019-03-04T22:26:24.375Z,57.10
2019-03-04T22:29:12.064Z,57.50
2019-03-04T22:31:59.798Z,58.00
2019-03-04T22:34:48.178Z,58.20
2019-03-04T22:37:36.732Z,58.60
2019-03-04T22:40:25.056Z,59.00
2019-03-04T22:43:13.147Z,59.10
2019-03-04T22:46:01.118Z,59.50
2019-03-04T22:48:49.018Z,59.30
2019-03-04T22:51:36.704Z,59.40
2019-03-04T22:54:24.718Z,59.90
2019-03-04T22:57:12.074Z,59.70
2019-03-04T23:00:00.138Z,59.80
2019-03-04T23:02:54.950Z,60.00
2019-03-04T23:05:37.433Z,61.60
2019-03-04T23:08:25.041Z,65.40
2019-03-04T23:11:13.331Z,72.90
2019-03-04T23:14:12.002Z,80.60
2019-03-04T23:17:00.462Z,83.50
2019-03-04T23:19:48.088Z,85.60
2019-03-04T23:22:35.904Z,86.10
2019-03-04T23:25:23.876Z,86.80
2019-03-04T23:28:11.813Z,87.60
2019-03-04T23:31:00.127Z,89.30
2019-03-04T23:33:48.374Z,90.40
2019-03-04T23:36:36.113Z,90.60
2019-03-04T23:39:24.025Z,90.70
2019-03-04T23:42:11.829Z,91.40
2019-03-04T23:44:59.549Z,91.80
2019-03-04T23:47:47.121Z,92.10
2019-03-04T23:50:35.060Z,92.60
2019-03-04T23:53:23.112Z,93.00
2019-03-04T23:56:10.724Z,93.00
2019-03-04T23:58:58.315Z,93.10
